East Quilcene, Washington
Current Conditions -  °F | °C
As of 12:35 AM on Tuesday 21 Oct 2014 (Local Time) from KPWT Reporting Station
Overcast Overcast  
Wind Chill: 12°   Ceiling: 600
Heat Index: 12°   Visibility: 10mi
Dew Point: 12°   Wind: 9mph
Humidity: 100%   Direction: 170°S
Pressure: 29.82"   Gusts: NA
Location:  47.8412°N, 122.841°W
Report Text: KPWT 210735Z AUTO 17008KT 10SM BKN006 OVC040 12/12 A2982 RMK AO1
Loading
Personal Weather Stations






























Interactive Weather Map
Tropical Storm Tracking
New forecast layout! Learn more

10-Day Weather Forecast

Advertisements
Track Severe Weather on mobile